sensor_id;sensor_type;location;lat;lon;timestamp;pressure;altitude;pressure_sealevel;temperature;humidity
84224;BME280;74353;51.208;0.304;2024-02-28T00:01:29;101859.88;;;8.90;47.26
84224;BME280;74353;51.208;0.304;2024-02-28T00:03:54;101855.77;;;9.01;47.18
84224;BME280;74353;51.208;0.304;2024-02-28T00:06:22;101855.13;;;8.98;47.26
84224;BME280;74353;51.208;0.304;2024-02-28T00:08:49;101854.45;;;8.96;47.30
84224;BME280;74353;51.208;0.304;2024-02-28T00:11:17;101849.60;;;8.90;47.45
84224;BME280;74353;51.208;0.304;2024-02-28T00:13:42;101852.13;;;8.95;47.41
84224;BME280;74353;51.208;0.304;2024-02-28T00:16:08;101849.95;;;8.79;47.39
84224;BME280;74353;51.208;0.304;2024-02-28T00:18:35;101853.63;;;8.50;47.50
84224;BME280;74353;51.208;0.304;2024-02-28T00:21:00;101852.90;;;9.00;47.49
84224;BME280;74353;51.208;0.304;2024-02-28T00:23:27;101855.90;;;9.01;47.48
84224;BME280;74353;51.208;0.304;2024-02-28T00:25:52;101856.07;;;9.08;47.43
84224;BME280;74353;51.208;0.304;2024-02-28T00:28:18;101857.89;;;9.12;47.35
84224;BME280;74353;51.208;0.304;2024-02-28T00:30:44;101854.83;;;9.06;47.52
84224;BME280;74353;51.208;0.304;2024-02-28T00:33:09;101855.40;;;9.00;47.64
84224;BME280;74353;51.208;0.304;2024-02-28T00:35:35;101853.83;;;9.01;47.61
84224;BME280;74353;51.208;0.304;2024-02-28T00:38:01;101854.41;;;9.10;47.46
84224;BME280;74353;51.208;0.304;2024-02-28T00:40:27;101855.87;;;8.84;47.55
84224;BME280;74353;51.208;0.304;2024-02-28T00:42:52;101860.04;;;9.09;47.56
84224;BME280;74353;51.208;0.304;2024-02-28T00:45:18;101863.47;;;9.05;47.61
84224;BME280;74353;51.208;0.304;2024-02-28T00:47:46;101859.82;;;8.87;47.57
84224;BME280;74353;51.208;0.304;2024-02-28T00:50:14;101854.29;;;9.14;47.48
84224;BME280;74353;51.208;0.304;2024-02-28T00:52:40;101852.54;;;8.82;47.61
84224;BME280;74353;51.208;0.304;2024-02-28T00:55:06;101856.92;;;8.90;47.47
84224;BME280;74353;51.208;0.304;2024-02-28T00:57:32;101862.66;;;8.68;47.52
84224;BME280;74353;51.208;0.304;2024-02-28T01:00:01;101858.91;;;9.07;47.51
84224;BME280;74353;51.208;0.304;2024-02-28T01:02:27;101857.19;;;9.10;47.48
84224;BME280;74353;51.208;0.304;2024-02-28T01:04:53;101857.77;;;9.17;47.35
84224;BME280;74353;51.208;0.304;2024-02-28T01:07:20;101858.40;;;8.74;47.66
84224;BME280;74353;51.208;0.304;2024-02-28T01:09:47;101863.31;;;8.84;47.55
84224;BME280;74353;51.208;0.304;2024-02-28T01:12:12;101862.28;;;9.01;47.70
84224;BME280;74353;51.208;0.304;2024-02-28T01:14:38;101862.34;;;8.89;47.44
84224;BME280;74353;51.208;0.304;2024-02-28T01:17:05;101863.67;;;8.72;47.74
84224;BME280;74353;51.208;0.304;2024-02-28T01:19:30;101859.47;;;8.78;47.50
84224;BME280;74353;51.208;0.304;2024-02-28T01:21:55;101852.42;;;9.04;47.32
84224;BME280;74353;51.208;0.304;2024-02-28T01:24:22;101848.00;;;8.75;47.42
84224;BME280;74353;51.208;0.304;2024-02-28T01:26:49;101848.08;;;8.88;47.70
84224;BME280;74353;51.208;0.304;2024-02-28T01:29:15;101849.24;;;9.03;47.57
84224;BME280;74353;51.208;0.304;2024-02-28T01:31:40;101849.76;;;8.75;47.49
84224;BME280;74353;51.208;0.304;2024-02-28T01:34:05;101851.17;;;8.88;47.53
84224;BME280;74353;51.208;0.304;2024-02-28T01:36:32;101849.86;;;8.89;47.34
84224;BME280;74353;51.208;0.304;2024-02-28T01:39:00;101844.94;;;8.83;47.37
84224;BME280;74353;51.208;0.304;2024-02-28T01:41:27;101841.07;;;8.68;47.56
84224;BME280;74353;51.208;0.304;2024-02-28T01:43:53;101845.41;;;8.76;47.51
84224;BME280;74353;51.208;0.304;2024-02-28T01:46:23;101848.90;;;8.31;48.10
84224;BME280;74353;51.208;0.304;2024-02-28T01:48:44;101848.39;;;8.99;47.62
84224;BME280;74353;51.208;0.304;2024-02-28T01:51:11;101845.88;;;8.61;48.03
84224;BME280;74353;51.208;0.304;2024-02-28T01:53:36;101847.31;;;8.72;48.03
84224;BME280;74353;51.208;0.304;2024-02-28T01:56:03;101842.22;;;8.76;47.99
84224;BME280;74353;51.208;0.304;2024-02-28T01:58:28;101842.04;;;8.70;48.18
84224;BME280;74353;51.208;0.304;2024-02-28T02:00:53;101845.79;;;8.69;48.05
84224;BME280;74353;51.208;0.304;2024-02-28T02:03:18;101841.53;;;8.54;48.48
84224;BME280;74353;51.208;0.304;2024-02-28T02:05:46;101840.45;;;8.68;48.34
84224;BME280;74353;51.208;0.304;2024-02-28T02:08:11;101837.70;;;8.66;48.37
84224;BME280;74353;51.208;0.304;2024-02-28T02:10:37;101840.10;;;8.67;48.40
84224;BME280;74353;51.208;0.304;2024-02-28T02:13:07;101837.87;;;8.93;48.36
84224;BME280;74353;51.208;0.304;2024-02-28T02:15:35;101836.18;;;8.65;48.39
84224;BME280;74353;51.208;0.304;2024-02-28T02:18:02;101836.45;;;8.89;48.40
84224;BME280;74353;51.208;0.304;2024-02-28T02:20:30;101840.06;;;8.68;48.31
84224;BME280;74353;51.208;0.304;2024-02-28T02:22:54;101845.41;;;8.45;48.33
84224;BME280;74353;51.208;0.304;2024-02-28T02:25:21;101841.00;;;8.61;48.60
84224;BME280;74353;51.208;0.304;2024-02-28T02:27:47;101839.66;;;8.53;48.81
84224;BME280;74353;51.208;0.304;2024-02-28T02:30:13;101839.16;;;8.78;48.68
84224;BME280;74353;51.208;0.304;2024-02-28T02:32:39;101839.04;;;8.53;48.79
84224;BME280;74353;51.208;0.304;2024-02-28T02:35:07;101843.41;;;8.89;48.75
84224;BME280;74353;51.208;0.304;2024-02-28T02:37:32;101841.27;;;8.67;48.57
84224;BME280;74353;51.208;0.304;2024-02-28T02:39:57;101837.65;;;8.63;48.51
84224;BME280;74353;51.208;0.304;2024-02-28T02:42:26;101838.34;;;8.62;48.57
84224;BME280;74353;51.208;0.304;2024-02-28T02:44:51;101835.19;;;8.50;48.89
84224;BME280;74353;51.208;0.304;2024-02-28T02:47:18;101828.23;;;8.52;48.95
84224;BME280;74353;51.208;0.304;2024-02-28T02:49:43;101827.22;;;8.69;49.25
84224;BME280;74353;51.208;0.304;2024-02-28T02:52:11;101825.13;;;8.44;49.32
84224;BME280;74353;51.208;0.304;2024-02-28T02:54:37;101822.08;;;8.95;49.22
84224;BME280;74353;51.208;0.304;2024-02-28T02:57:04;101817.68;;;8.46;48.96
84224;BME280;74353;51.208;0.304;2024-02-28T02:59:40;101814.90;;;8.52;48.96
84224;BME280;74353;51.208;0.304;2024-02-28T03:01:56;101813.65;;;8.58;48.75
84224;BME280;74353;51.208;0.304;2024-02-28T03:04:21;101814.45;;;8.48;48.89
84224;BME280;74353;51.208;0.304;2024-02-28T03:06:48;101818.16;;;8.32;49.07
84224;BME280;74353;51.208;0.304;2024-02-28T03:09:13;101811.82;;;8.63;48.97
84224;BME280;74353;51.208;0.304;2024-02-28T03:11:39;101815.96;;;8.52;49.11
84224;BME280;74353;51.208;0.304;2024-02-28T03:14:05;101816.22;;;8.76;49.17
84224;BME280;74353;51.208;0.304;2024-02-28T03:16:32;101823.07;;;8.45;49.45
84224;BME280;74353;51.208;0.304;2024-02-28T03:18:57;101819.47;;;8.51;49.41
84224;BME280;74353;51.208;0.304;2024-02-28T03:21:23;101825.53;;;8.51;49.37
84224;BME280;74353;51.208;0.304;2024-02-28T03:23:49;101828.96;;;8.61;49.30
84224;BME280;74353;51.208;0.304;2024-02-28T03:26:14;101829.85;;;8.51;49.50
84224;BME280;74353;51.208;0.304;2024-02-28T03:28:39;101826.53;;;8.56;49.41
84224;BME280;74353;51.208;0.304;2024-02-28T03:31:05;101823.82;;;8.69;49.05
84224;BME280;74353;51.208;0.304;2024-02-28T03:33:30;101820.40;;;8.89;49.11
84224;BME280;74353;51.208;0.304;2024-02-28T03:35:55;101821.80;;;8.71;48.98
84224;BME280;74353;51.208;0.304;2024-02-28T03:38:24;101828.41;;;8.65;49.18
84224;BME280;74353;51.208;0.304;2024-02-28T03:40:50;101823.82;;;8.64;49.13
84224;BME280;74353;51.208;0.304;2024-02-28T03:43:17;101825.00;;;8.61;49.08
84224;BME280;74353;51.208;0.304;2024-02-28T03:45:44;101828.31;;;8.56;49.13
84224;BME280;74353;51.208;0.304;2024-02-28T03:48:11;101829.25;;;8.65;48.81
84224;BME280;74353;51.208;0.304;2024-02-28T03:50:38;101835.23;;;8.53;48.68
84224;BME280;74353;51.208;0.304;2024-02-28T03:53:04;101832.82;;;8.40;48.52
84224;BME280;74353;51.208;0.304;2024-02-28T03:55:29;101829.89;;;8.35;48.22
84224;BME280;74353;51.208;0.304;2024-02-28T03:57:56;101830.78;;;8.44;48.22
84224;BME280;74353;51.208;0.304;2024-02-28T04:00:22;101832.63;;;8.35;48.00
84224;BME280;74353;51.208;0.304;2024-02-28T04:02:47;101839.06;;;8.21;48.05
84224;BME280;74353;51.208;0.304;2024-02-28T04:05:13;101834.76;;;8.13;47.96
84224;BME280;74353;51.208;0.304;2024-02-28T04:07:38;101832.21;;;8.17;47.42
84224;BME280;74353;51.208;0.304;2024-02-28T04:10:04;101837.12;;;7.97;47.73
84224;BME280;74353;51.208;0.304;2024-02-28T04:12:30;101842.00;;;8.48;47.46
84224;BME280;74353;51.208;0.304;2024-02-28T04:14:56;101842.57;;;8.28;47.36
84224;BME280;74353;51.208;0.304;2024-02-28T04:17:21;101840.42;;;8.06;47.04
84224;BME280;74353;51.208;0.304;2024-02-28T04:19:47;101837.55;;;7.78;47.19
84224;BME280;74353;51.208;0.304;2024-02-28T04:22:15;101834.18;;;7.88;46.84
84224;BME280;74353;51.208;0.304;2024-02-28T04:24:40;101836.22;;;8.00;47.13
84224;BME280;74353;51.208;0.304;2024-02-28T04:27:05;101834.67;;;7.89;47.21
84224;BME280;74353;51.208;0.304;2024-02-28T04:29:31;101834.76;;;7.84;47.15
84224;BME280;74353;51.208;0.304;2024-02-28T04:31:56;101833.97;;;7.70;46.98
84224;BME280;74353;51.208;0.304;2024-02-28T04:34:21;101836.01;;;7.58;47.12
84224;BME280;74353;51.208;0.304;2024-02-28T04:36:48;101835.89;;;7.57;47.56
84224;BME280;74353;51.208;0.304;2024-02-28T04:39:16;101833.04;;;7.46;48.03
84224;BME280;74353;51.208;0.304;2024-02-28T04:41:47;101834.02;;;7.74;47.90
84224;BME280;74353;51.208;0.304;2024-02-28T04:44:08;101840.67;;;7.36;48.41
84224;BME280;74353;51.208;0.304;2024-02-28T04:46:37;101839.65;;;7.43;49.06
84224;BME280;74353;51.208;0.304;2024-02-28T04:49:08;101834.78;;;7.94;48.92
84224;BME280;74353;51.208;0.304;2024-02-28T04:51:33;101832.32;;;7.81;48.98
84224;BME280;74353;51.208;0.304;2024-02-28T04:53:59;101836.72;;;7.62;49.36
84224;BME280;74353;51.208;0.304;2024-02-28T04:56:27;101844.94;;;7.79;49.01
84224;BME280;74353;51.208;0.304;2024-02-28T04:58:53;101842.27;;;7.79;49.04
84224;BME280;74353;51.208;0.304;2024-02-28T05:01:18;101838.27;;;7.79;49.38
84224;BME280;74353;51.208;0.304;2024-02-28T05:03:43;101834.56;;;7.66;49.45
84224;BME280;74353;51.208;0.304;2024-02-28T05:06:09;101830.95;;;8.25;49.38
84224;BME280;74353;51.208;0.304;2024-02-28T05:08:38;101828.51;;;7.60;50.00
84224;BME280;74353;51.208;0.304;2024-02-28T05:11:03;101822.77;;;7.61;50.02
84224;BME280;74353;51.208;0.304;2024-02-28T05:13:30;101818.50;;;7.73;50.01
84224;BME280;74353;51.208;0.304;2024-02-28T05:15:57;101817.10;;;7.82;49.83
84224;BME280;74353;51.208;0.304;2024-02-28T05:18:23;101818.23;;;7.80;50.05
84224;BME280;74353;51.208;0.304;2024-02-28T05:20:50;101819.31;;;7.86;50.11
84224;BME280;74353;51.208;0.304;2024-02-28T05:23:16;101815.44;;;7.96;50.09
84224;BME280;74353;51.208;0.304;2024-02-28T05:25:44;101806.68;;;7.90;50.22
84224;BME280;74353;51.208;0.304;2024-02-28T05:28:12;101804.27;;;7.65;50.39
84224;BME280;74353;51.208;0.304;2024-02-28T05:30:40;101811.03;;;7.94;50.42
84224;BME280;74353;51.208;0.304;2024-02-28T05:33:05;101814.52;;;8.09;50.29
84224;BME280;74353;51.208;0.304;2024-02-28T05:35:31;101816.92;;;8.27;50.49
84224;BME280;74353;51.208;0.304;2024-02-28T05:37:56;101817.19;;;8.02;50.60
84224;BME280;74353;51.208;0.304;2024-02-28T05:40:21;101811.68;;;7.85;51.00
84224;BME280;74353;51.208;0.304;2024-02-28T05:42:47;101813.62;;;7.54;50.31
84224;BME280;74353;51.208;0.304;2024-02-28T05:45:15;101807.99;;;8.02;50.10
84224;BME280;74353;51.208;0.304;2024-02-28T05:47:40;101803.94;;;7.94;50.09
84224;BME280;74353;51.208;0.304;2024-02-28T05:50:12;101805.24;;;7.86;49.79
84224;BME280;74353;51.208;0.304;2024-02-28T05:52:35;101814.47;;;7.95;50.10
84224;BME280;74353;51.208;0.304;2024-02-28T05:55:01;101818.15;;;8.08;49.96
84224;BME280;74353;51.208;0.304;2024-02-28T05:57:26;101819.78;;;7.76;49.99
84224;BME280;74353;51.208;0.304;2024-02-28T05:59:54;101815.08;;;7.90;50.20
84224;BME280;74353;51.208;0.304;2024-02-28T06:02:20;101810.55;;;7.73;50.14
84224;BME280;74353;51.208;0.304;2024-02-28T06:04:48;101811.58;;;8.05;49.90
84224;BME280;74353;51.208;0.304;2024-02-28T06:07:13;101802.85;;;7.94;50.15
84224;BME280;74353;51.208;0.304;2024-02-28T06:09:38;101800.36;;;7.72;50.07
84224;BME280;74353;51.208;0.304;2024-02-28T06:12:05;101800.02;;;7.64;50.10
84224;BME280;74353;51.208;0.304;2024-02-28T06:14:31;101799.67;;;7.83;50.11
84224;BME280;74353;51.208;0.304;2024-02-28T06:16:59;101802.30;;;7.89;50.04
84224;BME280;74353;51.208;0.304;2024-02-28T06:19:24;101801.20;;;7.91;49.88
84224;BME280;74353;51.208;0.304;2024-02-28T06:21:50;101803.06;;;7.57;49.82
84224;BME280;74353;51.208;0.304;2024-02-28T06:24:15;101799.50;;;8.00;49.32
84224;BME280;74353;51.208;0.304;2024-02-28T06:26:40;101800.54;;;7.76;49.58
84224;BME280;74353;51.208;0.304;2024-02-28T06:29:08;101805.40;;;7.89;49.31
84224;BME280;74353;51.208;0.304;2024-02-28T06:31:35;101801.95;;;7.53;49.47
84224;BME280;74353;51.208;0.304;2024-02-28T06:34:00;101798.90;;;7.62;49.70
84224;BME280;74353;51.208;0.304;2024-02-28T06:36:27;101796.90;;;7.69;49.59
84224;BME280;74353;51.208;0.304;2024-02-28T06:38:52;101799.00;;;7.92;49.75
84224;BME280;74353;51.208;0.304;2024-02-28T06:41:18;101799.21;;;7.75;49.77
84224;BME280;74353;51.208;0.304;2024-02-28T06:43:46;101803.53;;;7.68;49.80
84224;BME280;74353;51.208;0.304;2024-02-28T06:46:11;101804.28;;;7.73;49.75
84224;BME280;74353;51.208;0.304;2024-02-28T06:48:37;101802.91;;;7.69;49.90
84224;BME280;74353;51.208;0.304;2024-02-28T06:51:05;101801.69;;;7.75;49.76
84224;BME280;74353;51.208;0.304;2024-02-28T06:53:32;101800.96;;;7.57;49.63
84224;BME280;74353;51.208;0.304;2024-02-28T06:55:57;101801.70;;;7.64;49.87
84224;BME280;74353;51.208;0.304;2024-02-28T06:58:22;101804.28;;;7.62;49.88
84224;BME280;74353;51.208;0.304;2024-02-28T07:00:50;101798.74;;;7.63;49.97
84224;BME280;74353;51.208;0.304;2024-02-28T07:03:17;101799.32;;;7.71;49.77
84224;BME280;74353;51.208;0.304;2024-02-28T07:05:42;101798.06;;;7.52;50.17
84224;BME280;74353;51.208;0.304;2024-02-28T07:08:09;101795.90;;;7.39;49.99
84224;BME280;74353;51.208;0.304;2024-02-28T07:10:36;101795.06;;;7.77;49.75
84224;BME280;74353;51.208;0.304;2024-02-28T07:13:03;101793.57;;;7.67;49.87
84224;BME280;74353;51.208;0.304;2024-02-28T07:15:28;101791.70;;;7.68;49.88
84224;BME280;74353;51.208;0.304;2024-02-28T07:17:54;101793.19;;;7.44;49.95
84224;BME280;74353;51.208;0.304;2024-02-28T07:20:22;101790.71;;;7.67;50.09
84224;BME280;74353;51.208;0.304;2024-02-28T07:22:49;101785.09;;;7.61;50.28
84224;BME280;74353;51.208;0.304;2024-02-28T07:25:17;101786.88;;;7.61;50.35
84224;BME280;74353;51.208;0.304;2024-02-28T07:27:42;101795.99;;;7.58;50.58
84224;BME280;74353;51.208;0.304;2024-02-28T07:30:13;101804.09;;;7.60;50.70
84224;BME280;74353;51.208;0.304;2024-02-28T07:32:38;101812.84;;;7.82;50.40
84224;BME280;74353;51.208;0.304;2024-02-28T07:35:05;101811.84;;;7.85;50.40
84224;BME280;74353;51.208;0.304;2024-02-28T07:37:30;101814.53;;;7.80;51.05
84224;BME280;74353;51.208;0.304;2024-02-28T07:39:58;101815.81;;;7.65;50.95
84224;BME280;74353;51.208;0.304;2024-02-28T07:42:23;101820.69;;;7.77;50.73
84224;BME280;74353;51.208;0.304;2024-02-28T07:44:50;101819.96;;;7.83;50.73
84224;BME280;74353;51.208;0.304;2024-02-28T07:47:23;101821.08;;;7.52;50.97
84224;BME280;74353;51.208;0.304;2024-02-28T07:49:43;101818.92;;;7.65;51.24
84224;BME280;74353;51.208;0.304;2024-02-28T07:52:09;101823.82;;;7.89;50.84
84224;BME280;74353;51.208;0.304;2024-02-28T07:54:35;101823.25;;;7.89;50.90
84224;BME280;74353;51.208;0.304;2024-02-28T07:57:01;101822.05;;;7.75;51.20
84224;BME280;74353;51.208;0.304;2024-02-28T07:59:29;101825.71;;;7.81;51.14
84224;BME280;74353;51.208;0.304;2024-02-28T08:01:56;101826.88;;;8.15;50.96
84224;BME280;74353;51.208;0.304;2024-02-28T08:04:21;101827.83;;;7.87;51.11
84224;BME280;74353;51.208;0.304;2024-02-28T08:06:47;101832.14;;;7.96;50.97
84224;BME280;74353;51.208;0.304;2024-02-28T08:09:13;101837.32;;;7.78;50.87
84224;BME280;74353;51.208;0.304;2024-02-28T08:11:40;101831.44;;;7.59;50.84
84224;BME280;74353;51.208;0.304;2024-02-28T08:14:05;101833.14;;;7.92;51.24
84224;BME280;74353;51.208;0.304;2024-02-28T08:16:31;101839.74;;;8.02;51.12
84224;BME280;74353;51.208;0.304;2024-02-28T08:18:56;101842.80;;;8.02;51.23
84224;BME280;74353;51.208;0.304;2024-02-28T08:21:23;101839.75;;;7.84;51.18
84224;BME280;74353;51.208;0.304;2024-02-28T08:23:51;101836.70;;;8.02;51.32
84224;BME280;74353;51.208;0.304;2024-02-28T08:26:17;101836.11;;;7.84;51.27
84224;BME280;74353;51.208;0.304;2024-02-28T08:28:42;101836.81;;;7.87;51.31
84224;BME280;74353;51.208;0.304;2024-02-28T08:31:13;101843.15;;;7.97;51.18
84224;BME280;74353;51.208;0.304;2024-02-28T08:33:41;101844.54;;;7.88;51.54
84224;BME280;74353;51.208;0.304;2024-02-28T08:36:08;101850.62;;;7.74;51.41
84224;BME280;74353;51.208;0.304;2024-02-28T08:38:36;101849.98;;;7.88;51.18
84224;BME280;74353;51.208;0.304;2024-02-28T08:41:06;101852.57;;;8.04;51.40
84224;BME280;74353;51.208;0.304;2024-02-28T08:43:31;101852.21;;;8.18;51.21
84224;BME280;74353;51.208;0.304;2024-02-28T08:45:58;101850.24;;;8.23;51.25
84224;BME280;74353;51.208;0.304;2024-02-28T08:48:23;101849.86;;;8.59;51.16
84224;BME280;74353;51.208;0.304;2024-02-28T08:50:50;101846.45;;;8.26;51.41
84224;BME280;74353;51.208;0.304;2024-02-28T08:53:18;101839.07;;;8.38;51.20
84224;BME280;74353;51.208;0.304;2024-02-28T08:55:46;101839.80;;;8.54;51.58
84224;BME280;74353;51.208;0.304;2024-02-28T08:58:14;101833.04;;;8.60;51.53
84224;BME280;74353;51.208;0.304;2024-02-28T09:00:39;101833.10;;;8.13;51.75
84224;BME280;74353;51.208;0.304;2024-02-28T09:03:07;101832.62;;;8.34;51.60
84224;BME280;74353;51.208;0.304;2024-02-28T09:05:33;101838.12;;;8.39;51.53
84224;BME280;74353;51.208;0.304;2024-02-28T09:08:00;101841.98;;;8.73;51.96
84224;BME280;74353;51.208;0.304;2024-02-28T09:10:28;101837.11;;;8.42;51.92
84224;BME280;74353;51.208;0.304;2024-02-28T09:12:55;101837.16;;;8.40;52.05
84224;BME280;74353;51.208;0.304;2024-02-28T09:15:20;101837.15;;;8.59;51.80
84224;BME280;74353;51.208;0.304;2024-02-28T09:17:46;101841.87;;;8.76;51.55
84224;BME280;74353;51.208;0.304;2024-02-28T09:20:12;101838.03;;;8.81;51.50
84224;BME280;74353;51.208;0.304;2024-02-28T09:22:39;101838.89;;;8.96;51.42
84224;BME280;74353;51.208;0.304;2024-02-28T09:25:06;101837.98;;;8.93;51.67
84224;BME280;74353;51.208;0.304;2024-02-28T09:27:30;101836.28;;;8.76;51.66
84224;BME280;74353;51.208;0.304;2024-02-28T09:29:55;101832.81;;;9.06;51.74
84224;BME280;74353;51.208;0.304;2024-02-28T09:32:22;101834.82;;;9.29;51.25
84224;BME280;74353;51.208;0.304;2024-02-28T09:34:47;101841.39;;;9.24;51.35
84224;BME280;74353;51.208;0.304;2024-02-28T09:37:13;101839.53;;;9.37;51.25
84224;BME280;74353;51.208;0.304;2024-02-28T09:39:41;101839.56;;;9.14;51.32
84224;BME280;74353;51.208;0.304;2024-02-28T09:42:09;101838.75;;;9.32;51.53
84224;BME280;74353;51.208;0.304;2024-02-28T09:44:36;101837.89;;;9.21;51.28
84224;BME280;74353;51.208;0.304;2024-02-28T09:47:04;101829.37;;;9.33;51.10
84224;BME280;74353;51.208;0.304;2024-02-28T09:49:31;101820.25;;;9.21;50.93
84224;BME280;74353;51.208;0.304;2024-02-28T09:51:57;101818.47;;;9.73;51.21
84224;BME280;74353;51.208;0.304;2024-02-28T09:54:21;101817.38;;;9.53;51.12
84224;BME280;74353;51.208;0.304;2024-02-28T09:56:47;101809.04;;;9.61;50.89
84224;BME280;74353;51.208;0.304;2024-02-28T09:59:12;101809.31;;;9.37;51.16
84224;BME280;74353;51.208;0.304;2024-02-28T10:01:43;101809.74;;;9.68;51.06
84224;BME280;74353;51.208;0.304;2024-02-28T10:04:04;101815.36;;;9.53;51.04
84224;BME280;74353;51.208;0.304;2024-02-28T10:06:29;101822.81;;;9.57;51.06
84224;BME280;74353;51.208;0.304;2024-02-28T10:08:54;101825.71;;;9.89;50.80
84224;BME280;74353;51.208;0.304;2024-02-28T10:11:21;101826.94;;;9.84;51.24
84224;BME280;74353;51.208;0.304;2024-02-28T10:13:46;101823.19;;;9.72;51.19
84224;BME280;74353;51.208;0.304;2024-02-28T10:16:14;101820.50;;;9.83;51.09
84224;BME280;74353;51.208;0.304;2024-02-28T10:18:39;101816.79;;;10.18;51.13
84224;BME280;74353;51.208;0.304;2024-02-28T10:21:05;101814.97;;;10.19;51.06
84224;BME280;74353;51.208;0.304;2024-02-28T10:23:34;101812.05;;;9.87;51.27
84224;BME280;74353;51.208;0.304;2024-02-28T10:26:01;101814.43;;;10.17;51.39
84224;BME280;74353;51.208;0.304;2024-02-28T10:28:28;101813.31;;;10.45;51.13
84224;BME280;74353;51.208;0.304;2024-02-28T10:30:53;101808.47;;;10.39;51.40
84224;BME280;74353;51.208;0.304;2024-02-28T10:33:21;101803.56;;;10.19;51.20
84224;BME280;74353;51.208;0.304;2024-02-28T10:35:50;101798.39;;;10.41;51.52
84224;BME280;74353;51.208;0.304;2024-02-28T10:38:14;101797.37;;;10.73;51.06
84224;BME280;74353;51.208;0.304;2024-02-28T10:40:41;101799.04;;;10.67;51.16
84224;BME280;74353;51.208;0.304;2024-02-28T10:43:08;101797.04;;;10.74;51.14
84224;BME280;74353;51.208;0.304;2024-02-28T10:45:36;101792.36;;;10.54;51.19
84224;BME280;74353;51.208;0.304;2024-02-28T10:48:04;101793.18;;;10.75;50.81
84224;BME280;74353;51.208;0.304;2024-02-28T10:50:29;101790.71;;;10.53;50.95
84224;BME280;74353;51.208;0.304;2024-02-28T10:52:59;101786.18;;;10.79;51.00
84224;BME280;74353;51.208;0.304;2024-02-28T10:55:22;101788.11;;;10.53;51.04
84224;BME280;74353;51.208;0.304;2024-02-28T10:57:49;101784.66;;;10.77;50.44
84224;BME280;74353;51.208;0.304;2024-02-28T11:00:18;101779.76;;;10.71;50.69
84224;BME280;74353;51.208;0.304;2024-02-28T11:02:44;101782.22;;;11.22;50.59
84224;BME280;74353;51.208;0.304;2024-02-28T11:05:10;101785.32;;;11.17;50.26
84224;BME280;74353;51.208;0.304;2024-02-28T11:07:40;101784.44;;;11.08;50.44
84224;BME280;74353;51.208;0.304;2024-02-28T11:10:05;101780.61;;;11.00;50.25
84224;BME280;74353;51.208;0.304;2024-02-28T11:12:29;101781.01;;;10.37;50.09
84224;BME280;74353;51.208;0.304;2024-02-28T11:14:59;101781.47;;;11.29;49.76
84224;BME280;74353;51.208;0.304;2024-02-28T11:17:26;101779.90;;;11.22;49.84
84224;BME280;74353;51.208;0.304;2024-02-28T11:19:46;101778.66;;;11.22;49.74
84224;BME280;74353;51.208;0.304;2024-02-28T11:22:13;101775.73;;;11.12;50.10
84224;BME280;74353;51.208;0.304;2024-02-28T11:24:38;101767.87;;;11.29;50.04
84224;BME280;74353;51.208;0.304;2024-02-28T11:27:04;101760.21;;;11.34;49.83
84224;BME280;74353;51.208;0.304;2024-02-28T11:29:29;101758.41;;;11.27;50.11
84224;BME280;74353;51.208;0.304;2024-02-28T11:31:56;101756.63;;;11.51;49.57
84224;BME280;74353;51.208;0.304;2024-02-28T11:34:22;101748.87;;;11.39;49.96
84224;BME280;74353;51.208;0.304;2024-02-28T11:36:48;101747.43;;;11.31;49.56
84224;BME280;74353;51.208;0.304;2024-02-28T11:39:16;101747.96;;;11.62;49.68
84224;BME280;74353;51.208;0.304;2024-02-28T11:41:44;101745.45;;;11.60;49.72
84224;BME280;74353;51.208;0.304;2024-02-28T11:44:10;101739.60;;;11.78;49.44
84224;BME280;74353;51.208;0.304;2024-02-28T11:46:35;101740.43;;;11.85;49.11
84224;BME280;74353;51.208;0.304;2024-02-28T11:49:01;101739.41;;;11.90;49.45
84224;BME280;74353;51.208;0.304;2024-02-28T11:51:26;101743.43;;;11.99;49.12
84224;BME280;74353;51.208;0.304;2024-02-28T11:53:51;101740.28;;;11.76;49.22
84224;BME280;74353;51.208;0.304;2024-02-28T11:56:20;101740.79;;;12.26;48.65
84224;BME280;74353;51.208;0.304;2024-02-28T11:58:50;101737.17;;;11.98;49.04
84224;BME280;74353;51.208;0.304;2024-02-28T12:01:12;101727.19;;;12.53;48.44
84224;BME280;74353;51.208;0.304;2024-02-28T12:03:44;101715.64;;;12.28;48.46
84224;BME280;74353;51.208;0.304;2024-02-28T12:06:05;101709.74;;;12.41;48.45
84224;BME280;74353;51.208;0.304;2024-02-28T12:08:30;101703.94;;;12.38;48.91
84224;BME280;74353;51.208;0.304;2024-02-28T12:11:06;101698.85;;;12.42;48.09
84224;BME280;74353;51.208;0.304;2024-02-28T12:13:24;101688.19;;;12.44;47.89
84224;BME280;74353;51.208;0.304;2024-02-28T12:15:50;101680.53;;;12.45;47.68
84224;BME280;74353;51.208;0.304;2024-02-28T12:18:16;101686.71;;;12.71;47.55
84224;BME280;74353;51.208;0.304;2024-02-28T12:20:41;101683.98;;;12.78;47.43
84224;BME280;74353;51.208;0.304;2024-02-28T12:23:08;101685.42;;;12.86;47.09
84224;BME280;74353;51.208;0.304;2024-02-28T12:25:34;101679.93;;;12.86;46.81
84224;BME280;74353;51.208;0.304;2024-02-28T12:28:03;101682.77;;;12.82;46.69
84224;BME280;74353;51.208;0.304;2024-02-28T12:30:29;101682.95;;;12.96;46.06
84224;BME280;74353;51.208;0.304;2024-02-28T12:32:55;101685.05;;;12.99;45.88
84224;BME280;74353;51.208;0.304;2024-02-28T12:35:21;101679.34;;;12.95;45.66
84224;BME280;74353;51.208;0.304;2024-02-28T12:37:46;101671.20;;;13.29;45.84
84224;BME280;74353;51.208;0.304;2024-02-28T12:40:14;101671.70;;;13.42;45.28
84224;BME280;74353;51.208;0.304;2024-02-28T12:42:40;101663.94;;;13.23;45.22
84224;BME280;74353;51.208;0.304;2024-02-28T12:45:06;101660.52;;;13.54;45.05
84224;BME280;74353;51.208;0.304;2024-02-28T12:47:31;101651.73;;;13.58;44.98
84224;BME280;74353;51.208;0.304;2024-02-28T12:49:56;101648.13;;;13.73;44.61
84224;BME280;74353;51.208;0.304;2024-02-28T12:52:23;101643.67;;;13.75;44.50